Aéroport Valenciennes-Denain

LFAV · North, Hauts-de-France, 法国

使用的METAR站距离机场68 km。
罗盘
风向 的 风向 310° Aéroport Valenciennes-Denain 11/29
风: 9 kt, 3 beaufort

9 kt

3 kt
改变
0 ft 1.000 2.000 3.000 4.000 5.000
CAVOK
METAR LFAQ 231800Z AUTO 31009KT CAVOK 09/02 Q1018

METAR Aéroport Valenciennes-Denain - LFAV

Aéroport Valenciennes-Denain是,法国中的中型机场。 该机场位于纬度50,32717和经度3,46078。 该机场有3条跑道: 11/29, 11L/29R 和 6/24. 本场的ICAO机场代码为LFAV。 机场在Paris FIR中。

该航空气象观测是针对Albert-Bray Airport在2024年4月23日 20:00, 当地时间进行的。

机场观察

风向为310°,速度为9 kt。

天气为CAVOK。这意味着在5.000 ft或MSA(最低安全高度)以下(以较高者为准)以下没有云。这也意味着没有观测到积雨云或高耸的积云,可见度为10 km 或者更多或更高。此外,不会有雾,降雨或其他重要天气。

温度为9 °C,阵风为5 °C。 露点为2 °C,相对湿度为62%。 海平面上的气压为1018 hPa (QNH)。

白天

今天,太阳从06:35升起,在20:53降落。 这适用于Aéroport Valenciennes-Denain,世界夏令时可能有所不同。 当地时间与世界标准时间之间的时差为+2 小时。 夏令时目前正在进行中。

公司介绍

在这个机场,你可以找到飞行俱乐部。 这个机场上的公司有Takeoff Aviation Club & School 和 Aéroclub Valenciennes Hainaut。

体会

到Vliegles.nl去找飞行课程,跳伞和其他飞行体验。 浏览页面,了解Aéroport Valenciennes-Denain附近所有可用的活动。 你也可以使用搜索功能来寻找你所在地附近的特定飞行课程、跳伞或其他飞行体验。

跑道

Id 标题 侧风 逆风 侧风 %
11/29 111°-291° 3 kt 9 kt 33 %
11L/29R 111°-291° 3 kt 9 kt 33 %
6/24 061°-241° 8 kt 3 kt 93 %

逆风成分最大的方向会被突出显示,并用于横风计算。 这并不一定意味着这个方向在使用。

温度 & 天气

温度 9 °C
露点 2 °C
相对湿度 62%
风寒 5 °C
Kp-index 0 (0-9)

白天

日出
06:39
中午
13:47
日落
20:55 (24m)

小工具

你想在你的网站上有一个关于Aéroport Valenciennes-Denain的当前航空天气(METAR)的小部件吗?

显示HTML代码
报告变更